Time;durP1;ratioP1;P1;durP2;ratioP2;P2;SDS_P1;SDS_P2;PMS_P1;PMS_P2;Temp;Humidity;BMP_temperature;BMP_pressure;BME280_temperature;BME280_humidity;BME280_pressure;Samples;Min_cycle;Max_cycle;Signal;HPM_P1;HPM_P2
2021/12/21 05:46:19;;;;;;;4.95;3.20;;;;;;;0.65;54.51;94616.11;833776;71;32724;-76
2021/12/21 06:01:14;;;;;;;4.30;3.20;;;;;;;0.86;55.18;94639.34;828053;71;33193;-78
2021/12/21 06:31:09;;;;;;;4.83;4.10;;;;;;;2.04;54.20;94681.91;833802;71;29692;-78
2021/12/21 06:46:42;;;;;;;4.10;3.42;;;;;;;3.87;50.50;94704.05;827211;71;32706;-79
2021/12/21 07:01:08;;;;;;;3.60;3.30;;;;;;;4.71;47.45;94714.63;833730;71;29767;-75
2021/12/21 07:31:09;;;;;;;3.15;2.95;;;;;;;5.25;45.57;94733.33;821745;71;30370;-78
2021/12/21 07:46:09;;;;;;;3.87;3.58;;;;;;;5.78;44.18;94739.44;827881;71;30227;-79
2021/12/21 08:01:09;;;;;;;3.40;3.10;;;;;;;6.74;43.01;94730.24;833855;71;30354;-81
2021/12/21 08:16:09;;;;;;;4.22;3.45;;;;;;;7.77;40.90;94761.91;827793;71;30257;-81
2021/12/21 08:31:16;;;;;;;5.25;3.25;;;;;;;7.54;39.92;94789.34;833770;71;33172;-78
2021/12/21 08:46:10;;;;;;;3.33;3.02;;;;;;;7.61;40.65;94792.99;828272;71;30303;-79
2021/12/21 09:01:14;;;;;;;3.50;2.67;;;;;;;8.60;37.78;94792.60;828151;71;32741;-78
2021/12/21 09:16:28;;;;;;;2.87;2.67;;;;;;;7.87;37.32;94788.55;834644;71;32752;-77
2021/12/21 09:31:08;;;;;;;2.90;2.70;;;;;;;7.66;37.34;94789.59;829205;71;29729;-77
2021/12/21 09:46:17;;;;;;;3.10;2.80;;;;;;;6.79;38.47;94808.47;828408;71;33858;-78
2021/12/21 10:01:08;;;;;;;3.05;2.85;;;;;;;5.12;40.46;94821.62;835661;71;29736;-79
2021/12/21 10:16:10;;;;;;;3.62;3.37;;;;;;;5.98;39.83;94808.31;829711;71;29706;-77
2021/12/21 10:31:41;;;;;;;3.67;3.37;;;;;;;7.59;37.60;94805.00;829893;71;32093;-78
2021/12/21 10:46:09;;;;;;;4.65;3.70;;;;;;;5.81;39.94;94823.53;829735;71;29845;-79
2021/12/21 11:01:27;;;;;;;3.52;3.20;;;;;;;6.14;40.26;94806.59;829823;71;31601;-78
2021/12/21 11:16:08;;;;;;;3.65;3.30;;;;;;;5.28;40.64;94805.66;829563;71;28709;-77
2021/12/21 11:31:10;;;;;;;2.90;2.80;;;;;;;4.67;41.97;94795.94;828646;71;28725;-77
2021/12/21 11:46:13;;;;;;;3.90;3.55;;;;;;;3.65;42.21;94796.63;828370;71;28696;-76
2021/12/21 12:01:17;;;;;;;3.00;2.80;;;;;;;4.21;40.55;94785.23;827577;71;31903;-77
2021/12/21 12:16:11;;;;;;;3.55;3.00;;;;;;;4.83;39.42;94802.87;829578;71;28674;-79
2021/12/21 12:31:09;;;;;;;2.33;2.22;;;;;;;4.35;39.35;94823.34;828588;71;28623;-79
2021/12/21 12:46:10;;;;;;;3.30;3.00;;;;;;;3.53;40.98;94826.05;828084;71;29666;-76
2021/12/21 13:01:23;;;;;;;3.45;3.25;;;;;;;3.63;41.00;94824.63;828124;71;28796;-77
2021/12/21 13:16:14;;;;;;;4.05;2.98;;;;;;;3.12;41.97;94841.40;828573;71;28675;-78
2021/12/21 13:31:09;;;;;;;4.00;3.70;;;;;;;2.74;43.99;94851.85;828183;71;29183;-77
2021/12/21 13:46:09;;;;;;;4.05;3.75;;;;;;;2.52;44.44;94865.91;828015;71;28676;-76
2021/12/21 14:01:19;;;;;;;3.75;3.45;;;;;;;2.28;43.27;94886.63;827209;71;31734;-79
2021/12/21 14:16:12;;;;;;;5.35;4.85;;;;;;;2.03;44.14;94893.33;828525;71;30024;-78
2021/12/21 14:31:10;;;;;;;5.62;5.05;;;;;;;1.76;45.63;94900.70;827889;71;29196;-77
2021/12/21 14:46:12;;;;;;;5.62;5.10;;;;;;;1.44;47.04;94919.55;828083;71;28665;-77
2021/12/21 15:01:08;;;;;;;8.90;5.75;;;;;;;1.22;49.37;94905.83;828029;71;29216;-77
2021/12/21 15:16:14;;;;;;;9.20;6.87;;;;;;;1.04;49.81;94932.98;827237;71;31764;-77
2021/12/21 15:31:08;;;;;;;7.55;5.70;;;;;;;0.91;50.19;94945.53;833798;71;28667;-76
2021/12/21 15:46:09;;;;;;;8.35;5.53;;;;;;;0.89;50.88;94973.37;828118;71;29183;-77
2021/12/21 16:01:12;;;;;;;9.15;6.78;;;;;;;0.94;52.02;94969.66;828029;71;30922;-78
2021/12/21 16:16:08;;;;;;;10.15;6.70;;;;;;;0.94;54.47;94986.44;827694;71;29200;-79
